sensor_id;sensor_type;location;lat;lon;timestamp;P1;durP1;ratioP1;P2;durP2;ratioP2
35126;SDS011;21300;52.006;5.798;2023-04-15T00:00:40;7.88;;;4.00;;
35126;SDS011;21300;52.006;5.798;2023-04-15T00:03:06;6.18;;;3.90;;
35126;SDS011;21300;52.006;5.798;2023-04-15T00:05:32;8.20;;;3.92;;
35126;SDS011;21300;52.006;5.798;2023-04-15T00:07:59;7.28;;;4.22;;
35126;SDS011;21300;52.006;5.798;2023-04-15T00:10:26;4.60;;;3.13;;
35126;SDS011;21300;52.006;5.798;2023-04-15T00:12:52;8.40;;;3.88;;
35126;SDS011;21300;52.006;5.798;2023-04-15T00:15:18;7.93;;;4.18;;
35126;SDS011;21300;52.006;5.798;2023-04-15T00:17:44;9.65;;;4.15;;
35126;SDS011;21300;52.006;5.798;2023-04-15T00:20:10;9.35;;;4.18;;
35126;SDS011;21300;52.006;5.798;2023-04-15T00:22:35;7.03;;;4.13;;
35126;SDS011;21300;52.006;5.798;2023-04-15T00:25:01;7.28;;;4.00;;
35126;SDS011;21300;52.006;5.798;2023-04-15T00:27:27;5.43;;;3.70;;
35126;SDS011;21300;52.006;5.798;2023-04-15T00:29:53;8.13;;;4.10;;
35126;SDS011;21300;52.006;5.798;2023-04-15T00:32:19;7.07;;;3.40;;
35126;SDS011;21300;52.006;5.798;2023-04-15T00:34:45;10.13;;;4.20;;
35126;SDS011;21300;52.006;5.798;2023-04-15T00:37:11;5.53;;;3.70;;
35126;SDS011;21300;52.006;5.798;2023-04-15T00:39:36;7.70;;;4.05;;
35126;SDS011;21300;52.006;5.798;2023-04-15T00:42:05;6.68;;;4.03;;
35126;SDS011;21300;52.006;5.798;2023-04-15T00:44:31;8.15;;;4.15;;
35126;SDS011;21300;52.006;5.798;2023-04-15T00:46:57;6.90;;;4.32;;
35126;SDS011;21300;52.006;5.798;2023-04-15T00:49:24;9.43;;;4.70;;
35126;SDS011;21300;52.006;5.798;2023-04-15T00:51:51;7.05;;;4.45;;
35126;SDS011;21300;52.006;5.798;2023-04-15T00:54:16;6.95;;;4.22;;
35126;SDS011;21300;52.006;5.798;2023-04-15T00:56:42;8.63;;;4.30;;
35126;SDS011;21300;52.006;5.798;2023-04-15T00:59:08;7.55;;;4.72;;
35126;SDS011;21300;52.006;5.798;2023-04-15T01:01:34;9.32;;;4.95;;
35126;SDS011;21300;52.006;5.798;2023-04-15T01:04:00;11.45;;;6.03;;
35126;SDS011;21300;52.006;5.798;2023-04-15T01:06:27;9.18;;;5.03;;
35126;SDS011;21300;52.006;5.798;2023-04-15T01:08:53;8.38;;;5.22;;
35126;SDS011;21300;52.006;5.798;2023-04-15T01:11:19;8.38;;;4.63;;
35126;SDS011;21300;52.006;5.798;2023-04-15T01:13:48;11.23;;;4.75;;
35126;SDS011;21300;52.006;5.798;2023-04-15T01:16:14;12.70;;;5.38;;
35126;SDS011;21300;52.006;5.798;2023-04-15T01:18:40;10.55;;;5.28;;
35126;SDS011;21300;52.006;5.798;2023-04-15T01:21:06;9.75;;;5.22;;
35126;SDS011;21300;52.006;5.798;2023-04-15T01:23:34;9.95;;;5.00;;
35126;SDS011;21300;52.006;5.798;2023-04-15T01:26:02;9.23;;;5.22;;
35126;SDS011;21300;52.006;5.798;2023-04-15T01:28:28;12.63;;;5.68;;
35126;SDS011;21300;52.006;5.798;2023-04-15T01:31:08;8.80;;;5.28;;
35126;SDS011;21300;52.006;5.798;2023-04-15T01:33:38;8.65;;;5.22;;
35126;SDS011;21300;52.006;5.798;2023-04-15T01:36:06;6.78;;;4.70;;
35126;SDS011;21300;52.006;5.798;2023-04-15T01:38:34;10.20;;;5.78;;
35126;SDS011;21300;52.006;5.798;2023-04-15T01:41:00;8.45;;;5.68;;
35126;SDS011;21300;52.006;5.798;2023-04-15T01:43:28;6.28;;;5.35;;
35126;SDS011;21300;52.006;5.798;2023-04-15T01:45:53;7.60;;;5.22;;
35126;SDS011;21300;52.006;5.798;2023-04-15T01:48:19;13.70;;;5.68;;
35126;SDS011;21300;52.006;5.798;2023-04-15T01:50:45;9.98;;;5.40;;
35126;SDS011;21300;52.006;5.798;2023-04-15T01:53:11;8.95;;;5.93;;
35126;SDS011;21300;52.006;5.798;2023-04-15T01:55:36;8.05;;;5.03;;
35126;SDS011;21300;52.006;5.798;2023-04-15T01:58:02;10.13;;;5.72;;
35126;SDS011;21300;52.006;5.798;2023-04-15T02:00:28;11.07;;;5.35;;
35126;SDS011;21300;52.006;5.798;2023-04-15T02:02:54;8.45;;;5.22;;
35126;SDS011;21300;52.006;5.798;2023-04-15T02:05:20;8.35;;;5.43;;
35126;SDS011;21300;52.006;5.798;2023-04-15T02:07:45;8.85;;;4.93;;
35126;SDS011;21300;52.006;5.798;2023-04-15T02:10:12;8.80;;;5.15;;
35126;SDS011;21300;52.006;5.798;2023-04-15T02:12:38;9.05;;;6.28;;
35126;SDS011;21300;52.006;5.798;2023-04-15T02:15:04;9.40;;;5.75;;
35126;SDS011;21300;52.006;5.798;2023-04-15T02:17:33;9.25;;;5.85;;
35126;SDS011;21300;52.006;5.798;2023-04-15T02:19:59;10.50;;;5.70;;
35126;SDS011;21300;52.006;5.798;2023-04-15T02:22:25;12.40;;;5.80;;
35126;SDS011;21300;52.006;5.798;2023-04-15T02:24:51;9.00;;;5.47;;
35126;SDS011;21300;52.006;5.798;2023-04-15T02:27:17;12.57;;;6.18;;
35126;SDS011;21300;52.006;5.798;2023-04-15T02:29:43;7.72;;;5.22;;
35126;SDS011;21300;52.006;5.798;2023-04-15T02:32:10;7.65;;;5.70;;
35126;SDS011;21300;52.006;5.798;2023-04-15T02:34:36;6.82;;;5.13;;
35126;SDS011;21300;52.006;5.798;2023-04-15T02:37:07;9.40;;;5.85;;
35126;SDS011;21300;52.006;5.798;2023-04-15T02:39:33;9.65;;;5.85;;
35126;SDS011;21300;52.006;5.798;2023-04-15T02:41:59;9.20;;;6.20;;
35126;SDS011;21300;52.006;5.798;2023-04-15T02:44:25;9.10;;;5.82;;
35126;SDS011;21300;52.006;5.798;2023-04-15T02:46:51;11.65;;;6.05;;
35126;SDS011;21300;52.006;5.798;2023-04-15T02:49:19;10.60;;;5.82;;
35126;SDS011;21300;52.006;5.798;2023-04-15T02:51:45;8.88;;;5.72;;
35126;SDS011;21300;52.006;5.798;2023-04-15T02:54:13;11.40;;;5.70;;
35126;SDS011;21300;52.006;5.798;2023-04-15T02:56:40;10.35;;;5.95;;
35126;SDS011;21300;52.006;5.798;2023-04-15T02:59:06;10.98;;;6.53;;
35126;SDS011;21300;52.006;5.798;2023-04-15T03:01:31;10.05;;;6.60;;
35126;SDS011;21300;52.006;5.798;2023-04-15T03:03:57;8.90;;;6.00;;
35126;SDS011;21300;52.006;5.798;2023-04-15T03:06:22;10.80;;;6.40;;
35126;SDS011;21300;52.006;5.798;2023-04-15T03:08:48;11.35;;;5.88;;
35126;SDS011;21300;52.006;5.798;2023-04-15T03:11:15;9.55;;;6.03;;
35126;SDS011;21300;52.006;5.798;2023-04-15T03:13:41;10.15;;;6.32;;
35126;SDS011;21300;52.006;5.798;2023-04-15T03:16:07;10.27;;;6.57;;
35126;SDS011;21300;52.006;5.798;2023-04-15T03:18:33;10.20;;;6.63;;
35126;SDS011;21300;52.006;5.798;2023-04-15T03:20:59;9.52;;;6.15;;
35126;SDS011;21300;52.006;5.798;2023-04-15T03:23:25;9.82;;;6.72;;
35126;SDS011;21300;52.006;5.798;2023-04-15T03:25:50;10.07;;;6.90;;
35126;SDS011;21300;52.006;5.798;2023-04-15T03:28:16;11.32;;;6.25;;
35126;SDS011;21300;52.006;5.798;2023-04-15T03:30:41;10.85;;;7.22;;
35126;SDS011;21300;52.006;5.798;2023-04-15T03:33:07;9.57;;;6.80;;
35126;SDS011;21300;52.006;5.798;2023-04-15T03:35:33;7.63;;;6.25;;
35126;SDS011;21300;52.006;5.798;2023-04-15T03:37:58;11.02;;;6.97;;
35126;SDS011;21300;52.006;5.798;2023-04-15T03:40:24;12.48;;;6.45;;
35126;SDS011;21300;52.006;5.798;2023-04-15T03:42:50;11.40;;;8.15;;
35126;SDS011;21300;52.006;5.798;2023-04-15T03:45:15;9.88;;;6.68;;
35126;SDS011;21300;52.006;5.798;2023-04-15T03:47:41;13.85;;;7.45;;
35126;SDS011;21300;52.006;5.798;2023-04-15T03:50:07;10.77;;;6.80;;
35126;SDS011;21300;52.006;5.798;2023-04-15T03:52:33;10.30;;;6.68;;
35126;SDS011;21300;52.006;5.798;2023-04-15T03:54:58;12.27;;;7.60;;
35126;SDS011;21300;52.006;5.798;2023-04-15T03:57:24;10.73;;;7.82;;
35126;SDS011;21300;52.006;5.798;2023-04-15T03:59:49;10.20;;;6.90;;
35126;SDS011;21300;52.006;5.798;2023-04-15T04:02:15;8.20;;;5.93;;
35126;SDS011;21300;52.006;5.798;2023-04-15T04:04:41;9.38;;;6.75;;
35126;SDS011;21300;52.006;5.798;2023-04-15T04:07:07;12.80;;;7.32;;
35126;SDS011;21300;52.006;5.798;2023-04-15T04:09:33;12.45;;;7.35;;
35126;SDS011;21300;52.006;5.798;2023-04-15T04:11:58;14.73;;;7.82;;
35126;SDS011;21300;52.006;5.798;2023-04-15T04:14:25;11.15;;;7.85;;
35126;SDS011;21300;52.006;5.798;2023-04-15T04:16:53;12.93;;;8.13;;
35126;SDS011;21300;52.006;5.798;2023-04-15T04:19:20;12.10;;;8.45;;
35126;SDS011;21300;52.006;5.798;2023-04-15T04:21:46;12.00;;;8.60;;
35126;SDS011;21300;52.006;5.798;2023-04-15T04:24:11;11.63;;;8.02;;
35126;SDS011;21300;52.006;5.798;2023-04-15T04:26:37;13.18;;;8.23;;
35126;SDS011;21300;52.006;5.798;2023-04-15T04:29:02;14.50;;;8.77;;
35126;SDS011;21300;52.006;5.798;2023-04-15T04:31:28;12.93;;;8.43;;
35126;SDS011;21300;52.006;5.798;2023-04-15T04:33:53;14.00;;;8.57;;
35126;SDS011;21300;52.006;5.798;2023-04-15T04:36:19;12.18;;;8.05;;
35126;SDS011;21300;52.006;5.798;2023-04-15T04:38:45;13.65;;;8.27;;
35126;SDS011;21300;52.006;5.798;2023-04-15T04:41:10;14.65;;;9.13;;
35126;SDS011;21300;52.006;5.798;2023-04-15T04:43:36;15.88;;;9.32;;
35126;SDS011;21300;52.006;5.798;2023-04-15T04:46:01;13.07;;;9.13;;
35126;SDS011;21300;52.006;5.798;2023-04-15T04:48:27;12.60;;;8.80;;
35126;SDS011;21300;52.006;5.798;2023-04-15T04:50:52;13.82;;;9.13;;
35126;SDS011;21300;52.006;5.798;2023-04-15T04:53:18;14.38;;;8.73;;
35126;SDS011;21300;52.006;5.798;2023-04-15T04:55:44;15.45;;;9.20;;
35126;SDS011;21300;52.006;5.798;2023-04-15T04:58:09;11.50;;;8.68;;
35126;SDS011;21300;52.006;5.798;2023-04-15T05:00:35;11.18;;;8.73;;
35126;SDS011;21300;52.006;5.798;2023-04-15T05:03:02;13.10;;;9.25;;
35126;SDS011;21300;52.006;5.798;2023-04-15T05:05:28;12.77;;;9.57;;
35126;SDS011;21300;52.006;5.798;2023-04-15T05:07:53;14.75;;;8.55;;
35126;SDS011;21300;52.006;5.798;2023-04-15T05:10:19;13.82;;;10.00;;
35126;SDS011;21300;52.006;5.798;2023-04-15T05:12:45;13.00;;;8.75;;
35126;SDS011;21300;52.006;5.798;2023-04-15T05:15:11;15.00;;;10.57;;
35126;SDS011;21300;52.006;5.798;2023-04-15T05:17:36;16.55;;;9.85;;
35126;SDS011;21300;52.006;5.798;2023-04-15T05:20:02;12.55;;;8.90;;
35126;SDS011;21300;52.006;5.798;2023-04-15T05:22:28;13.45;;;9.48;;
35126;SDS011;21300;52.006;5.798;2023-04-15T05:24:54;15.43;;;10.07;;
35126;SDS011;21300;52.006;5.798;2023-04-15T05:27:20;14.38;;;10.20;;
35126;SDS011;21300;52.006;5.798;2023-04-15T05:29:47;13.98;;;9.57;;
35126;SDS011;21300;52.006;5.798;2023-04-15T05:32:12;15.50;;;10.10;;
35126;SDS011;21300;52.006;5.798;2023-04-15T05:34:38;14.65;;;10.00;;
35126;SDS011;21300;52.006;5.798;2023-04-15T05:37:03;13.88;;;9.88;;
35126;SDS011;21300;52.006;5.798;2023-04-15T05:39:29;15.65;;;10.32;;
35126;SDS011;21300;52.006;5.798;2023-04-15T05:41:56;15.98;;;9.70;;
35126;SDS011;21300;52.006;5.798;2023-04-15T05:44:22;16.05;;;10.60;;
35126;SDS011;21300;52.006;5.798;2023-04-15T05:46:48;14.18;;;10.80;;
35126;SDS011;21300;52.006;5.798;2023-04-15T05:49:13;12.43;;;9.35;;
35126;SDS011;21300;52.006;5.798;2023-04-15T05:51:39;14.30;;;10.43;;
35126;SDS011;21300;52.006;5.798;2023-04-15T05:54:04;18.13;;;11.27;;
35126;SDS011;21300;52.006;5.798;2023-04-15T05:56:30;16.20;;;10.82;;
35126;SDS011;21300;52.006;5.798;2023-04-15T05:58:56;18.02;;;11.85;;
35126;SDS011;21300;52.006;5.798;2023-04-15T06:01:22;19.10;;;11.20;;
35126;SDS011;21300;52.006;5.798;2023-04-15T06:03:48;19.20;;;10.60;;
35126;SDS011;21300;52.006;5.798;2023-04-15T06:06:14;20.17;;;11.68;;
35126;SDS011;21300;52.006;5.798;2023-04-15T06:08:39;18.20;;;11.48;;
35126;SDS011;21300;52.006;5.798;2023-04-15T06:11:05;15.23;;;10.95;;
35126;SDS011;21300;52.006;5.798;2023-04-15T06:13:31;17.63;;;11.10;;
35126;SDS011;21300;52.006;5.798;2023-04-15T06:15:56;18.48;;;11.63;;
35126;SDS011;21300;52.006;5.798;2023-04-15T06:18:22;17.50;;;11.57;;
35126;SDS011;21300;52.006;5.798;2023-04-15T06:20:48;20.02;;;11.77;;
35126;SDS011;21300;52.006;5.798;2023-04-15T06:23:13;17.48;;;11.27;;
35126;SDS011;21300;52.006;5.798;2023-04-15T06:25:39;20.75;;;11.30;;
35126;SDS011;21300;52.006;5.798;2023-04-15T06:28:05;17.63;;;11.40;;
35126;SDS011;21300;52.006;5.798;2023-04-15T06:30:30;17.88;;;12.38;;
35126;SDS011;21300;52.006;5.798;2023-04-15T06:32:56;15.35;;;11.02;;
35126;SDS011;21300;52.006;5.798;2023-04-15T06:35:22;17.13;;;12.02;;
35126;SDS011;21300;52.006;5.798;2023-04-15T06:37:47;14.15;;;9.70;;
35126;SDS011;21300;52.006;5.798;2023-04-15T06:40:13;16.92;;;11.35;;
35126;SDS011;21300;52.006;5.798;2023-04-15T06:42:38;13.90;;;10.65;;
35126;SDS011;21300;52.006;5.798;2023-04-15T06:45:04;18.55;;;11.10;;
35126;SDS011;21300;52.006;5.798;2023-04-15T06:47:30;15.32;;;11.25;;
35126;SDS011;21300;52.006;5.798;2023-04-15T06:49:56;16.60;;;10.38;;
35126;SDS011;21300;52.006;5.798;2023-04-15T06:52:21;15.48;;;10.50;;
35126;SDS011;21300;52.006;5.798;2023-04-15T06:54:47;13.27;;;9.88;;
35126;SDS011;21300;52.006;5.798;2023-04-15T06:57:12;18.55;;;11.77;;
35126;SDS011;21300;52.006;5.798;2023-04-15T06:59:38;17.92;;;11.70;;
35126;SDS011;21300;52.006;5.798;2023-04-15T07:02:04;17.10;;;11.88;;
35126;SDS011;21300;52.006;5.798;2023-04-15T07:04:30;18.27;;;12.18;;
35126;SDS011;21300;52.006;5.798;2023-04-15T07:06:55;12.98;;;7.15;;
35126;SDS011;21300;52.006;5.798;2023-04-15T07:09:22;16.90;;;11.75;;
35126;SDS011;21300;52.006;5.798;2023-04-15T07:11:48;17.80;;;11.52;;
35126;SDS011;21300;52.006;5.798;2023-04-15T07:14:14;17.98;;;11.73;;
35126;SDS011;21300;52.006;5.798;2023-04-15T07:16:39;16.98;;;11.73;;
35126;SDS011;21300;52.006;5.798;2023-04-15T07:19:05;17.83;;;11.02;;
35126;SDS011;21300;52.006;5.798;2023-04-15T07:21:31;13.60;;;9.90;;
35126;SDS011;21300;52.006;5.798;2023-04-15T07:23:57;13.93;;;10.02;;
35126;SDS011;21300;52.006;5.798;2023-04-15T07:26:23;14.23;;;9.25;;
35126;SDS011;21300;52.006;5.798;2023-04-15T07:28:48;11.80;;;8.48;;
35126;SDS011;21300;52.006;5.798;2023-04-15T07:31:14;15.50;;;9.02;;
35126;SDS011;21300;52.006;5.798;2023-04-15T07:33:41;14.40;;;8.35;;
35126;SDS011;21300;52.006;5.798;2023-04-15T07:36:06;13.05;;;8.77;;
35126;SDS011;21300;52.006;5.798;2023-04-15T07:38:32;13.52;;;8.82;;
35126;SDS011;21300;52.006;5.798;2023-04-15T07:40:58;11.82;;;8.82;;
35126;SDS011;21300;52.006;5.798;2023-04-15T07:43:23;13.15;;;8.70;;
35126;SDS011;21300;52.006;5.798;2023-04-15T07:45:49;10.98;;;7.63;;
35126;SDS011;21300;52.006;5.798;2023-04-15T07:48:14;14.65;;;8.73;;
35126;SDS011;21300;52.006;5.798;2023-04-15T07:50:40;11.30;;;7.78;;
35126;SDS011;21300;52.006;5.798;2023-04-15T07:53:06;12.95;;;8.40;;
35126;SDS011;21300;52.006;5.798;2023-04-15T07:55:32;13.23;;;8.85;;
35126;SDS011;21300;52.006;5.798;2023-04-15T07:57:58;13.95;;;9.65;;
35126;SDS011;21300;52.006;5.798;2023-04-15T08:00:23;12.98;;;9.35;;
35126;SDS011;21300;52.006;5.798;2023-04-15T08:02:49;12.82;;;9.32;;
35126;SDS011;21300;52.006;5.798;2023-04-15T08:05:17;15.15;;;10.20;;
35126;SDS011;21300;52.006;5.798;2023-04-15T08:07:42;15.15;;;9.93;;
35126;SDS011;21300;52.006;5.798;2023-04-15T08:10:08;15.48;;;9.70;;
35126;SDS011;21300;52.006;5.798;2023-04-15T08:12:34;15.73;;;9.68;;
35126;SDS011;21300;52.006;5.798;2023-04-15T08:15:00;15.18;;;9.32;;
35126;SDS011;21300;52.006;5.798;2023-04-15T08:17:26;13.25;;;9.13;;
35126;SDS011;21300;52.006;5.798;2023-04-15T08:19:52;12.50;;;7.88;;
35126;SDS011;21300;52.006;5.798;2023-04-15T08:22:18;11.50;;;7.72;;
35126;SDS011;21300;52.006;5.798;2023-04-15T08:24:43;14.05;;;7.68;;
35126;SDS011;21300;52.006;5.798;2023-04-15T08:27:09;10.15;;;7.32;;
35126;SDS011;21300;52.006;5.798;2023-04-15T08:29:35;10.25;;;7.65;;
35126;SDS011;21300;52.006;5.798;2023-04-15T08:32:00;10.95;;;7.32;;
35126;SDS011;21300;52.006;5.798;2023-04-15T08:34:27;9.20;;;6.95;;
35126;SDS011;21300;52.006;5.798;2023-04-15T08:36:53;11.40;;;6.65;;
35126;SDS011;21300;52.006;5.798;2023-04-15T08:39:19;8.95;;;5.85;;
35126;SDS011;21300;52.006;5.798;2023-04-15T08:41:46;6.80;;;3.97;;
35126;SDS011;21300;52.006;5.798;2023-04-15T08:44:15;8.63;;;5.32;;
35126;SDS011;21300;52.006;5.798;2023-04-15T08:46:42;6.50;;;4.85;;
35126;SDS011;21300;52.006;5.798;2023-04-15T08:49:09;6.93;;;4.53;;
35126;SDS011;21300;52.006;5.798;2023-04-15T08:51:41;5.70;;;3.60;;
35126;SDS011;21300;52.006;5.798;2023-04-15T08:54:07;7.25;;;4.20;;
35126;SDS011;21300;52.006;5.798;2023-04-15T08:56:34;5.95;;;4.28;;
35126;SDS011;21300;52.006;5.798;2023-04-15T08:59:02;3.85;;;3.10;;
35126;SDS011;21300;52.006;5.798;2023-04-15T09:01:28;5.22;;;3.50;;
35126;SDS011;21300;52.006;5.798;2023-04-15T09:03:54;5.78;;;3.70;;
35126;SDS011;21300;52.006;5.798;2023-04-15T09:06:21;5.90;;;4.13;;
35126;SDS011;21300;52.006;5.798;2023-04-15T09:08:48;4.90;;;3.45;;
35126;SDS011;21300;52.006;5.798;2023-04-15T09:11:14;4.93;;;3.30;;
35126;SDS011;21300;52.006;5.798;2023-04-15T09:13:41;4.70;;;3.30;;
35126;SDS011;21300;52.006;5.798;2023-04-15T09:16:07;6.47;;;3.53;;
35126;SDS011;21300;52.006;5.798;2023-04-15T09:18:35;6.05;;;3.42;;
35126;SDS011;21300;52.006;5.798;2023-04-15T09:23:31;3.30;;;2.05;;
35126;SDS011;21300;52.006;5.798;2023-04-15T09:25:57;3.58;;;3.03;;
35126;SDS011;21300;52.006;5.798;2023-04-15T09:28:23;5.00;;;3.03;;
35126;SDS011;21300;52.006;5.798;2023-04-15T09:30:51;4.28;;;3.03;;
35126;SDS011;21300;52.006;5.798;2023-04-15T09:33:20;5.22;;;3.25;;
35126;SDS011;21300;52.006;5.798;2023-04-15T09:35:59;4.93;;;3.67;;
35126;SDS011;21300;52.006;5.798;2023-04-15T09:38:29;5.47;;;3.83;;
35126;SDS011;21300;52.006;5.798;2023-04-15T09:40:55;5.72;;;3.90;;
35126;SDS011;21300;52.006;5.798;2023-04-15T09:43:22;5.47;;;4.05;;
35126;SDS011;21300;52.006;5.798;2023-04-15T09:45:48;5.95;;;3.72;;
35126;SDS011;21300;52.006;5.798;2023-04-15T09:50:46;5.22;;;3.78;;
35126;SDS011;21300;52.006;5.798;2023-04-15T09:53:17;4.88;;;3.40;;
35126;SDS011;21300;52.006;5.798;2023-04-15T09:55:54;6.47;;;3.90;;
35126;SDS011;21300;52.006;5.798;2023-04-15T09:58:39;4.28;;;2.90;;
35126;SDS011;21300;52.006;5.798;2023-04-15T10:01:06;7.80;;;3.50;;
35126;SDS011;21300;52.006;5.798;2023-04-15T10:03:33;4.32;;;2.30;;
35126;SDS011;21300;52.006;5.798;2023-04-15T10:06:01;5.07;;;3.58;;
35126;SDS011;21300;52.006;5.798;2023-04-15T10:08:28;4.80;;;3.22;;
35126;SDS011;21300;52.006;5.798;2023-04-15T10:10:55;5.53;;;3.40;;
35126;SDS011;21300;52.006;5.798;2023-04-15T10:13:25;5.30;;;3.25;;
35126;SDS011;21300;52.006;5.798;2023-04-15T10:16:04;5.30;;;3.53;;
35126;SDS011;21300;52.006;5.798;2023-04-15T10:18:43;4.55;;;3.40;;
35126;SDS011;21300;52.006;5.798;2023-04-15T10:21:10;5.47;;;3.08;;
35126;SDS011;21300;52.006;5.798;2023-04-15T10:23:38;4.70;;;2.95;;
35126;SDS011;21300;52.006;5.798;2023-04-15T10:26:04;5.03;;;3.28;;
35126;SDS011;21300;52.006;5.798;2023-04-15T10:28:30;5.05;;;3.00;;
35126;SDS011;21300;52.006;5.798;2023-04-15T10:30:56;3.05;;;1.65;;
35126;SDS011;21300;52.006;5.798;2023-04-15T10:33:23;2.83;;;1.92;;
35126;SDS011;21300;52.006;5.798;2023-04-15T10:35:51;4.53;;;2.47;;
35126;SDS011;21300;52.006;5.798;2023-04-15T10:38:34;4.53;;;2.60;;
35126;SDS011;21300;52.006;5.798;2023-04-15T10:43:38;3.80;;;2.85;;
35126;SDS011;21300;52.006;5.798;2023-04-15T10:46:04;4.75;;;2.65;;
35126;SDS011;21300;52.006;5.798;2023-04-15T10:48:30;4.30;;;2.75;;
35126;SDS011;21300;52.006;5.798;2023-04-15T10:50:57;4.18;;;2.85;;
35126;SDS011;21300;52.006;5.798;2023-04-15T10:53:28;2.90;;;1.60;;
35126;SDS011;21300;52.006;5.798;2023-04-15T10:55:55;5.13;;;2.63;;
35126;SDS011;21300;52.006;5.798;2023-04-15T10:58:22;4.28;;;2.65;;
35126;SDS011;21300;52.006;5.798;2023-04-15T11:00:49;3.92;;;2.50;;
35126;SDS011;21300;52.006;5.798;2023-04-15T11:03:33;3.90;;;2.42;;
35126;SDS011;21300;52.006;5.798;2023-04-15T11:06:02;4.45;;;2.78;;
35126;SDS011;21300;52.006;5.798;2023-04-15T11:14:27;5.15;;;3.00;;
35126;SDS011;21300;52.006;5.798;2023-04-15T11:16:52;3.85;;;3.05;;
35126;SDS011;21300;52.006;5.798;2023-04-15T11:19:18;3.75;;;2.47;;
35126;SDS011;21300;52.006;5.798;2023-04-15T11:21:43;6.22;;;2.78;;
35126;SDS011;21300;52.006;5.798;2023-04-15T11:24:09;3.78;;;2.50;;
35126;SDS011;21300;52.006;5.798;2023-04-15T11:26:34;3.58;;;2.55;;
35126;SDS011;21300;52.006;5.798;2023-04-15T11:29:00;5.38;;;2.60;;
35126;SDS011;21300;52.006;5.798;2023-04-15T11:31:26;4.45;;;1.75;;
35126;SDS011;21300;52.006;5.798;2023-04-15T11:33:56;3.28;;;1.90;;
35126;SDS011;21300;52.006;5.798;2023-04-15T11:36:24;4.97;;;1.75;;
35126;SDS011;21300;52.006;5.798;2023-04-15T11:38:51;3.17;;;2.03;;
35126;SDS011;21300;52.006;5.798;2023-04-15T11:41:23;5.65;;;1.90;;
35126;SDS011;21300;52.006;5.798;2023-04-15T11:43:49;5.97;;;1.90;;
35126;SDS011;21300;52.006;5.798;2023-04-15T11:46:15;4.05;;;2.28;;
35126;SDS011;21300;52.006;5.798;2023-04-15T11:48:42;3.97;;;1.98;;
35126;SDS011;21300;52.006;5.798;2023-04-15T11:51:09;4.53;;;2.20;;
35126;SDS011;21300;52.006;5.798;2023-04-15T11:53:37;2.85;;;1.92;;
35126;SDS011;21300;52.006;5.798;2023-04-15T11:56:05;4.20;;;2.05;;
35126;SDS011;21300;52.006;5.798;2023-04-15T11:58:33;5.55;;;1.92;;
35126;SDS011;21300;52.006;5.798;2023-04-15T12:01:02;4.25;;;1.80;;
35126;SDS011;21300;52.006;5.798;2023-04-15T12:03:29;4.22;;;2.17;;
35126;SDS011;21300;52.006;5.798;2023-04-15T12:16:38;5.97;;;2.58;;
35126;SDS011;21300;52.006;5.798;2023-04-15T12:19:06;4.43;;;2.40;;
35126;SDS011;21300;52.006;5.798;2023-04-15T12:21:36;4.22;;;2.20;;
35126;SDS011;21300;52.006;5.798;2023-04-15T12:24:03;3.08;;;2.05;;
35126;SDS011;21300;52.006;5.798;2023-04-15T12:26:42;2.72;;;1.55;;
35126;SDS011;21300;52.006;5.798;2023-04-15T12:29:13;7.43;;;2.30;;
35126;SDS011;21300;52.006;5.798;2023-04-15T12:31:53;7.97;;;2.53;;
35126;SDS011;21300;52.006;5.798;2023-04-15T12:34:30;5.60;;;2.40;;
35126;SDS011;21300;52.006;5.798;2023-04-15T12:36:57;4.10;;;2.35;;
35126;SDS011;21300;52.006;5.798;2023-04-15T12:39:24;5.22;;;3.15;;
35126;SDS011;21300;52.006;5.798;2023-04-15T12:41:52;5.63;;;2.60;;
35126;SDS011;21300;52.006;5.798;2023-04-15T12:44:18;6.93;;;2.30;;
35126;SDS011;21300;52.006;5.798;2023-04-15T12:46:46;6.15;;;2.65;;
35126;SDS011;21300;52.006;5.798;2023-04-15T12:49:12;4.28;;;2.22;;
35126;SDS011;21300;52.006;5.798;2023-04-15T12:51:43;4.97;;;2.13;;
35126;SDS011;21300;52.006;5.798;2023-04-15T12:54:09;3.17;;;1.55;;
35126;SDS011;21300;52.006;5.798;2023-04-15T12:56:35;1.98;;;1.30;;
35126;SDS011;21300;52.006;5.798;2023-04-15T12:59:01;3.67;;;1.77;;
35126;SDS011;21300;52.006;5.798;2023-04-15T13:01:26;2.90;;;1.40;;
35126;SDS011;21300;52.006;5.798;2023-04-15T13:03:52;3.65;;;1.25;;
35126;SDS011;21300;52.006;5.798;2023-04-15T13:06:18;1.80;;;1.17;;
35126;SDS011;21300;52.006;5.798;2023-04-15T13:08:43;2.88;;;1.67;;
35126;SDS011;21300;52.006;5.798;2023-04-15T13:11:09;2.63;;;1.38;;
35126;SDS011;21300;52.006;5.798;2023-04-15T13:13:35;4.38;;;1.10;;
35126;SDS011;21300;52.006;5.798;2023-04-15T13:16:01;3.90;;;1.42;;
35126;SDS011;21300;52.006;5.798;2023-04-15T13:18:26;2.70;;;1.15;;
35126;SDS011;21300;52.006;5.798;2023-04-15T13:20:52;2.03;;;1.50;;
35126;SDS011;21300;52.006;5.798;2023-04-15T13:23:19;2.97;;;1.10;;
35126;SDS011;21300;52.006;5.798;2023-04-15T13:25:44;3.38;;;1.13;;
35126;SDS011;21300;52.006;5.798;2023-04-15T13:28:10;5.05;;;1.48;;
35126;SDS011;21300;52.006;5.798;2023-04-15T13:30:36;2.72;;;1.08;;
35126;SDS011;21300;52.006;5.798;2023-04-15T13:33:02;4.40;;;1.20;;
35126;SDS011;21300;52.006;5.798;2023-04-15T13:35:28;2.47;;;1.20;;
35126;SDS011;21300;52.006;5.798;2023-04-15T13:37:54;1.50;;;0.70;;
35126;SDS011;21300;52.006;5.798;2023-04-15T13:40:20;2.13;;;1.00;;
35126;SDS011;21300;52.006;5.798;2023-04-15T13:42:45;1.90;;;0.90;;
35126;SDS011;21300;52.006;5.798;2023-04-15T13:45:11;3.20;;;0.82;;
35126;SDS011;21300;52.006;5.798;2023-04-15T13:47:37;1.20;;;0.75;;
35126;SDS011;21300;52.006;5.798;2023-04-15T13:50:02;1.90;;;1.00;;
35126;SDS011;21300;52.006;5.798;2023-04-15T13:52:29;2.22;;;1.08;;
35126;SDS011;21300;52.006;5.798;2023-04-15T13:54:55;1.70;;;1.08;;
35126;SDS011;21300;52.006;5.798;2023-04-15T13:57:20;2.63;;;0.98;;
35126;SDS011;21300;52.006;5.798;2023-04-15T13:59:46;2.35;;;0.90;;
35126;SDS011;21300;52.006;5.798;2023-04-15T14:02:13;1.52;;;0.90;;
35126;SDS011;21300;52.006;5.798;2023-04-15T14:04:39;2.35;;;1.15;;
35126;SDS011;21300;52.006;5.798;2023-04-15T14:07:05;4.45;;;0.95;;
35126;SDS011;21300;52.006;5.798;2023-04-15T14:09:31;2.13;;;1.10;;
35126;SDS011;21300;52.006;5.798;2023-04-15T14:11:57;3.85;;;0.80;;
35126;SDS011;21300;52.006;5.798;2023-04-15T14:14:24;2.58;;;1.20;;
35126;SDS011;21300;52.006;5.798;2023-04-15T14:16:50;1.90;;;0.90;;
35126;SDS011;21300;52.006;5.798;2023-04-15T14:19:15;1.83;;;0.93;;
35126;SDS011;21300;52.006;5.798;2023-04-15T14:21:41;2.15;;;1.17;;
35126;SDS011;21300;52.006;5.798;2023-04-15T14:24:06;2.75;;;1.00;;
35126;SDS011;21300;52.006;5.798;2023-04-15T14:26:32;2.65;;;1.40;;
35126;SDS011;21300;52.006;5.798;2023-04-15T14:28:57;3.53;;;1.08;;
35126;SDS011;21300;52.006;5.798;2023-04-15T14:31:23;3.00;;;2.00;;
35126;SDS011;21300;52.006;5.798;2023-04-15T14:33:49;2.22;;;1.17;;
35126;SDS011;21300;52.006;5.798;2023-04-15T14:36:14;2.22;;;1.45;;
35126;SDS011;21300;52.006;5.798;2023-04-15T14:38:59;1.83;;;1.20;;
35126;SDS011;21300;52.006;5.798;2023-04-15T14:41:24;1.55;;;1.25;;
35126;SDS011;21300;52.006;5.798;2023-04-15T14:43:50;2.75;;;1.17;;
35126;SDS011;21300;52.006;5.798;2023-04-15T14:46:16;6.20;;;4.60;;
35126;SDS011;21300;52.006;5.798;2023-04-15T14:48:41;4.03;;;2.63;;
35126;SDS011;21300;52.006;5.798;2023-04-15T14:51:07;3.22;;;1.80;;
35126;SDS011;21300;52.006;5.798;2023-04-15T14:53:32;8.45;;;4.03;;
35126;SDS011;21300;52.006;5.798;2023-04-15T14:55:58;4.03;;;1.58;;
35126;SDS011;21300;52.006;5.798;2023-04-15T14:58:24;4.80;;;2.45;;
35126;SDS011;21300;52.006;5.798;2023-04-15T15:00:49;3.85;;;2.03;;